sensor_id;sensor_type;location;lat;lon;timestamp;P1;durP1;ratioP1;P2;durP2;ratioP2
66095;SDS011;53861;53.422;14.530;2023-05-17T00:02:22;6.25;;;1.60;;
66095;SDS011;53861;53.422;14.530;2023-05-17T00:04:49;5.03;;;1.65;;
66095;SDS011;53861;53.422;14.530;2023-05-17T00:07:17;4.90;;;1.70;;
66095;SDS011;53861;53.422;14.530;2023-05-17T00:09:46;7.68;;;1.50;;
66095;SDS011;53861;53.422;14.530;2023-05-17T00:12:13;3.38;;;1.27;;
66095;SDS011;53861;53.422;14.530;2023-05-17T00:14:40;6.75;;;1.55;;
66095;SDS011;53861;53.422;14.530;2023-05-17T00:17:08;5.15;;;1.60;;
66095;SDS011;53861;53.422;14.530;2023-05-17T00:19:35;4.35;;;1.60;;
66095;SDS011;53861;53.422;14.530;2023-05-17T00:22:02;7.07;;;1.60;;
66095;SDS011;53861;53.422;14.530;2023-05-17T00:24:30;6.40;;;1.58;;
66095;SDS011;53861;53.422;14.530;2023-05-17T00:26:59;7.80;;;2.30;;
66095;SDS011;53861;53.422;14.530;2023-05-17T00:29:26;6.93;;;2.17;;
66095;SDS011;53861;53.422;14.530;2023-05-17T00:31:53;8.38;;;1.95;;
66095;SDS011;53861;53.422;14.530;2023-05-17T00:34:20;6.00;;;1.90;;
66095;SDS011;53861;53.422;14.530;2023-05-17T00:36:47;5.43;;;1.60;;
66095;SDS011;53861;53.422;14.530;2023-05-17T00:39:15;4.97;;;1.88;;
66095;SDS011;53861;53.422;14.530;2023-05-17T00:41:42;7.00;;;1.80;;
66095;SDS011;53861;53.422;14.530;2023-05-17T00:44:11;11.70;;;1.92;;
66095;SDS011;53861;53.422;14.530;2023-05-17T00:46:38;9.18;;;1.80;;
66095;SDS011;53861;53.422;14.530;2023-05-17T00:49:05;7.03;;;1.98;;
66095;SDS011;53861;53.422;14.530;2023-05-17T00:51:33;7.05;;;2.10;;
66095;SDS011;53861;53.422;14.530;2023-05-17T00:54:01;6.53;;;1.92;;
66095;SDS011;53861;53.422;14.530;2023-05-17T00:56:29;7.03;;;2.28;;
66095;SDS011;53861;53.422;14.530;2023-05-17T00:58:57;7.60;;;2.10;;
66095;SDS011;53861;53.422;14.530;2023-05-17T01:01:26;7.10;;;2.35;;
66095;SDS011;53861;53.422;14.530;2023-05-17T01:03:54;7.65;;;2.20;;
66095;SDS011;53861;53.422;14.530;2023-05-17T01:06:21;8.80;;;2.25;;
66095;SDS011;53861;53.422;14.530;2023-05-17T01:08:48;11.48;;;2.28;;
66095;SDS011;53861;53.422;14.530;2023-05-17T01:11:17;9.45;;;2.33;;
66095;SDS011;53861;53.422;14.530;2023-05-17T01:13:58;7.88;;;2.10;;
66095;SDS011;53861;53.422;14.530;2023-05-17T01:16:36;8.15;;;2.20;;
66095;SDS011;53861;53.422;14.530;2023-05-17T01:19:13;8.20;;;2.20;;
66095;SDS011;53861;53.422;14.530;2023-05-17T01:21:55;5.28;;;2.08;;
66095;SDS011;53861;53.422;14.530;2023-05-17T01:24:26;8.05;;;2.20;;
66095;SDS011;53861;53.422;14.530;2023-05-17T01:27:00;5.75;;;2.10;;
66095;SDS011;53861;53.422;14.530;2023-05-17T01:29:30;11.98;;;2.40;;
66095;SDS011;53861;53.422;14.530;2023-05-17T01:32:00;7.22;;;2.50;;
66095;SDS011;53861;53.422;14.530;2023-05-17T01:34:28;7.72;;;2.47;;
66095;SDS011;53861;53.422;14.530;2023-05-17T01:36:56;6.18;;;2.47;;
66095;SDS011;53861;53.422;14.530;2023-05-17T01:39:23;7.38;;;2.90;;
66095;SDS011;53861;53.422;14.530;2023-05-17T01:41:54;5.63;;;2.28;;
66095;SDS011;53861;53.422;14.530;2023-05-17T01:44:28;6.82;;;2.17;;
66095;SDS011;53861;53.422;14.530;2023-05-17T01:47:10;6.65;;;2.20;;
66095;SDS011;53861;53.422;14.530;2023-05-17T01:49:41;7.55;;;2.33;;
66095;SDS011;53861;53.422;14.530;2023-05-17T01:52:15;9.63;;;2.65;;
66095;SDS011;53861;53.422;14.530;2023-05-17T01:54:46;7.13;;;2.28;;
66095;SDS011;53861;53.422;14.530;2023-05-17T01:57:16;10.82;;;2.42;;
66095;SDS011;53861;53.422;14.530;2023-05-17T01:59:47;9.88;;;2.67;;
66095;SDS011;53861;53.422;14.530;2023-05-17T02:02:17;6.57;;;2.70;;
66095;SDS011;53861;53.422;14.530;2023-05-17T02:04:46;8.98;;;2.38;;
66095;SDS011;53861;53.422;14.530;2023-05-17T02:07:16;10.05;;;2.75;;
66095;SDS011;53861;53.422;14.530;2023-05-17T02:09:43;8.65;;;2.60;;
66095;SDS011;53861;53.422;14.530;2023-05-17T02:12:10;8.25;;;2.95;;
66095;SDS011;53861;53.422;14.530;2023-05-17T02:14:37;9.57;;;2.78;;
66095;SDS011;53861;53.422;14.530;2023-05-17T02:17:06;8.32;;;2.45;;
66095;SDS011;53861;53.422;14.530;2023-05-17T02:19:33;9.27;;;2.83;;
66095;SDS011;53861;53.422;14.530;2023-05-17T02:22:00;11.32;;;3.10;;
66095;SDS011;53861;53.422;14.530;2023-05-17T02:24:28;8.82;;;2.78;;
66095;SDS011;53861;53.422;14.530;2023-05-17T02:26:55;8.88;;;2.80;;
66095;SDS011;53861;53.422;14.530;2023-05-17T02:29:22;9.63;;;2.92;;
66095;SDS011;53861;53.422;14.530;2023-05-17T02:31:49;13.45;;;3.33;;
66095;SDS011;53861;53.422;14.530;2023-05-17T02:34:18;10.05;;;2.97;;
66095;SDS011;53861;53.422;14.530;2023-05-17T02:36:45;7.07;;;2.72;;
66095;SDS011;53861;53.422;14.530;2023-05-17T02:39:13;13.55;;;3.20;;
66095;SDS011;53861;53.422;14.530;2023-05-17T02:41:40;10.55;;;3.25;;
66095;SDS011;53861;53.422;14.530;2023-05-17T02:44:07;12.40;;;2.95;;
66095;SDS011;53861;53.422;14.530;2023-05-17T02:46:35;7.50;;;2.83;;
66095;SDS011;53861;53.422;14.530;2023-05-17T02:49:02;10.55;;;3.15;;
66095;SDS011;53861;53.422;14.530;2023-05-17T02:51:31;8.63;;;3.03;;
66095;SDS011;53861;53.422;14.530;2023-05-17T02:53:58;8.30;;;2.70;;
66095;SDS011;53861;53.422;14.530;2023-05-17T02:56:25;11.02;;;3.22;;
66095;SDS011;53861;53.422;14.530;2023-05-17T02:58:52;10.18;;;3.20;;
66095;SDS011;53861;53.422;14.530;2023-05-17T03:01:22;12.27;;;3.92;;
66095;SDS011;53861;53.422;14.530;2023-05-17T03:03:49;12.63;;;3.53;;
66095;SDS011;53861;53.422;14.530;2023-05-17T03:06:16;12.45;;;4.22;;
66095;SDS011;53861;53.422;14.530;2023-05-17T03:08:45;17.20;;;4.03;;
66095;SDS011;53861;53.422;14.530;2023-05-17T03:11:12;11.07;;;4.32;;
66095;SDS011;53861;53.422;14.530;2023-05-17T03:13:39;14.32;;;4.25;;
66095;SDS011;53861;53.422;14.530;2023-05-17T03:16:06;10.57;;;3.83;;
66095;SDS011;53861;53.422;14.530;2023-05-17T03:18:34;11.65;;;3.95;;
66095;SDS011;53861;53.422;14.530;2023-05-17T03:21:02;17.02;;;4.05;;
66095;SDS011;53861;53.422;14.530;2023-05-17T03:23:29;11.90;;;3.60;;
66095;SDS011;53861;53.422;14.530;2023-05-17T03:25:58;10.35;;;3.53;;
66095;SDS011;53861;53.422;14.530;2023-05-17T03:28:25;9.70;;;3.45;;
66095;SDS011;53861;53.422;14.530;2023-05-17T03:30:53;11.82;;;3.80;;
66095;SDS011;53861;53.422;14.530;2023-05-17T03:33:20;8.82;;;3.03;;
66095;SDS011;53861;53.422;14.530;2023-05-17T03:35:47;13.15;;;3.75;;
66095;SDS011;53861;53.422;14.530;2023-05-17T03:38:14;11.95;;;3.40;;
66095;SDS011;53861;53.422;14.530;2023-05-17T03:40:41;13.60;;;3.35;;
66095;SDS011;53861;53.422;14.530;2023-05-17T03:43:10;11.15;;;2.90;;
66095;SDS011;53861;53.422;14.530;2023-05-17T03:45:37;9.90;;;3.35;;
66095;SDS011;53861;53.422;14.530;2023-05-17T03:48:06;14.48;;;3.75;;
66095;SDS011;53861;53.422;14.530;2023-05-17T03:50:33;15.50;;;3.60;;
66095;SDS011;53861;53.422;14.530;2023-05-17T03:53:00;15.27;;;4.10;;
66095;SDS011;53861;53.422;14.530;2023-05-17T03:55:28;9.05;;;2.85;;
66095;SDS011;53861;53.422;14.530;2023-05-17T03:57:55;10.45;;;3.75;;
66095;SDS011;53861;53.422;14.530;2023-05-17T04:00:24;12.27;;;3.47;;
66095;SDS011;53861;53.422;14.530;2023-05-17T04:02:51;11.30;;;3.40;;
66095;SDS011;53861;53.422;14.530;2023-05-17T04:05:19;10.05;;;3.22;;
66095;SDS011;53861;53.422;14.530;2023-05-17T04:07:46;11.15;;;3.55;;
66095;SDS011;53861;53.422;14.530;2023-05-17T04:10:13;14.80;;;3.33;;
66095;SDS011;53861;53.422;14.530;2023-05-17T04:12:40;10.68;;;3.60;;
66095;SDS011;53861;53.422;14.530;2023-05-17T04:15:08;9.48;;;2.72;;
66095;SDS011;53861;53.422;14.530;2023-05-17T04:17:39;11.73;;;4.07;;
66095;SDS011;53861;53.422;14.530;2023-05-17T04:20:07;13.95;;;4.05;;
66095;SDS011;53861;53.422;14.530;2023-05-17T04:22:35;15.25;;;3.42;;
66095;SDS011;53861;53.422;14.530;2023-05-17T04:25:02;13.82;;;3.72;;
66095;SDS011;53861;53.422;14.530;2023-05-17T04:27:30;10.20;;;3.47;;
66095;SDS011;53861;53.422;14.530;2023-05-17T04:29:57;13.07;;;3.60;;
66095;SDS011;53861;53.422;14.530;2023-05-17T04:32:25;13.55;;;3.63;;
66095;SDS011;53861;53.422;14.530;2023-05-17T04:34:53;14.38;;;4.43;;
66095;SDS011;53861;53.422;14.530;2023-05-17T04:37:21;15.18;;;4.22;;
66095;SDS011;53861;53.422;14.530;2023-05-17T04:39:49;11.18;;;3.97;;
66095;SDS011;53861;53.422;14.530;2023-05-17T04:42:17;13.90;;;4.22;;
66095;SDS011;53861;53.422;14.530;2023-05-17T04:44:44;10.23;;;3.70;;
66095;SDS011;53861;53.422;14.530;2023-05-17T04:47:11;10.10;;;3.60;;
66095;SDS011;53861;53.422;14.530;2023-05-17T04:49:39;11.65;;;3.90;;
66095;SDS011;53861;53.422;14.530;2023-05-17T04:52:07;12.18;;;3.60;;
66095;SDS011;53861;53.422;14.530;2023-05-17T04:54:35;15.10;;;4.30;;
66095;SDS011;53861;53.422;14.530;2023-05-17T04:57:02;17.65;;;3.60;;
66095;SDS011;53861;53.422;14.530;2023-05-17T04:59:29;15.23;;;3.17;;
66095;SDS011;53861;53.422;14.530;2023-05-17T05:01:56;11.68;;;3.33;;
66095;SDS011;53861;53.422;14.530;2023-05-17T05:04:24;11.25;;;3.40;;
66095;SDS011;53861;53.422;14.530;2023-05-17T05:06:51;13.02;;;3.47;;
66095;SDS011;53861;53.422;14.530;2023-05-17T05:09:20;13.00;;;3.67;;
66095;SDS011;53861;53.422;14.530;2023-05-17T05:11:47;10.88;;;3.45;;
66095;SDS011;53861;53.422;14.530;2023-05-17T05:14:14;12.27;;;3.25;;
66095;SDS011;53861;53.422;14.530;2023-05-17T05:16:42;10.10;;;2.97;;
66095;SDS011;53861;53.422;14.530;2023-05-17T05:19:10;12.02;;;3.45;;
66095;SDS011;53861;53.422;14.530;2023-05-17T05:21:37;6.07;;;2.10;;
66095;SDS011;53861;53.422;14.530;2023-05-17T05:24:04;15.25;;;3.33;;
66095;SDS011;53861;53.422;14.530;2023-05-17T05:26:34;9.98;;;3.35;;
66095;SDS011;53861;53.422;14.530;2023-05-17T05:29:02;10.90;;;3.10;;
66095;SDS011;53861;53.422;14.530;2023-05-17T05:31:30;13.48;;;3.33;;
66095;SDS011;53861;53.422;14.530;2023-05-17T05:33:57;9.73;;;2.55;;
66095;SDS011;53861;53.422;14.530;2023-05-17T05:36:26;13.18;;;3.03;;
66095;SDS011;53861;53.422;14.530;2023-05-17T05:38:53;13.50;;;3.05;;
66095;SDS011;53861;53.422;14.530;2023-05-17T05:41:20;11.77;;;2.92;;
66095;SDS011;53861;53.422;14.530;2023-05-17T05:43:49;12.07;;;3.03;;
66095;SDS011;53861;53.422;14.530;2023-05-17T05:46:16;11.85;;;2.67;;
66095;SDS011;53861;53.422;14.530;2023-05-17T05:48:43;16.98;;;2.80;;
66095;SDS011;53861;53.422;14.530;2023-05-17T05:51:11;13.52;;;2.60;;
66095;SDS011;53861;53.422;14.530;2023-05-17T05:53:38;10.65;;;2.40;;
66095;SDS011;53861;53.422;14.530;2023-05-17T05:56:05;10.98;;;2.65;;
66095;SDS011;53861;53.422;14.530;2023-05-17T05:58:34;16.23;;;2.80;;
66095;SDS011;53861;53.422;14.530;2023-05-17T06:01:03;14.85;;;2.92;;
66095;SDS011;53861;53.422;14.530;2023-05-17T06:03:30;15.75;;;2.42;;
66095;SDS011;53861;53.422;14.530;2023-05-17T06:05:59;7.35;;;1.98;;
66095;SDS011;53861;53.422;14.530;2023-05-17T06:08:26;10.13;;;1.45;;
66095;SDS011;53861;53.422;14.530;2023-05-17T06:10:54;8.75;;;1.98;;
66095;SDS011;53861;53.422;14.530;2023-05-17T06:13:21;13.70;;;2.15;;
66095;SDS011;53861;53.422;14.530;2023-05-17T06:15:48;13.30;;;2.85;;
66095;SDS011;53861;53.422;14.530;2023-05-17T06:18:17;10.20;;;2.38;;
66095;SDS011;53861;53.422;14.530;2023-05-17T06:20:44;10.25;;;1.80;;
66095;SDS011;53861;53.422;14.530;2023-05-17T06:23:12;10.63;;;1.70;;
66095;SDS011;53861;53.422;14.530;2023-05-17T06:25:39;12.40;;;2.53;;
66095;SDS011;53861;53.422;14.530;2023-05-17T06:28:07;9.20;;;2.17;;
66095;SDS011;53861;53.422;14.530;2023-05-17T06:30:34;14.00;;;1.83;;
66095;SDS011;53861;53.422;14.530;2023-05-17T06:33:02;10.23;;;1.92;;
66095;SDS011;53861;53.422;14.530;2023-05-17T06:35:31;9.23;;;1.67;;
66095;SDS011;53861;53.422;14.530;2023-05-17T06:37:58;9.90;;;2.10;;
66095;SDS011;53861;53.422;14.530;2023-05-17T06:40:27;13.40;;;2.15;;
66095;SDS011;53861;53.422;14.530;2023-05-17T06:42:54;6.10;;;1.88;;
66095;SDS011;53861;53.422;14.530;2023-05-17T06:45:22;10.70;;;2.08;;
66095;SDS011;53861;53.422;14.530;2023-05-17T06:47:51;11.40;;;2.00;;
66095;SDS011;53861;53.422;14.530;2023-05-17T06:50:19;12.35;;;3.33;;
66095;SDS011;53861;53.422;14.530;2023-05-17T06:52:47;12.90;;;2.00;;
66095;SDS011;53861;53.422;14.530;2023-05-17T06:55:15;6.93;;;1.52;;
66095;SDS011;53861;53.422;14.530;2023-05-17T06:57:45;9.38;;;1.85;;
66095;SDS011;53861;53.422;14.530;2023-05-17T07:00:13;10.73;;;1.85;;
66095;SDS011;53861;53.422;14.530;2023-05-17T07:02:40;9.60;;;1.90;;
66095;SDS011;53861;53.422;14.530;2023-05-17T07:05:08;9.75;;;2.13;;
66095;SDS011;53861;53.422;14.530;2023-05-17T07:07:35;7.72;;;1.35;;
66095;SDS011;53861;53.422;14.530;2023-05-17T07:10:05;12.88;;;2.20;;
66095;SDS011;53861;53.422;14.530;2023-05-17T07:12:32;12.00;;;1.55;;
66095;SDS011;53861;53.422;14.530;2023-05-17T07:15:00;11.40;;;2.20;;
66095;SDS011;53861;53.422;14.530;2023-05-17T07:17:27;10.05;;;1.55;;
66095;SDS011;53861;53.422;14.530;2023-05-17T07:19:55;8.05;;;1.38;;
66095;SDS011;53861;53.422;14.530;2023-05-17T07:22:22;12.15;;;1.90;;
66095;SDS011;53861;53.422;14.530;2023-05-17T07:24:49;13.10;;;1.88;;
66095;SDS011;53861;53.422;14.530;2023-05-17T07:27:18;13.57;;;1.60;;
66095;SDS011;53861;53.422;14.530;2023-05-17T07:29:48;8.85;;;1.58;;
66095;SDS011;53861;53.422;14.530;2023-05-17T07:32:15;11.50;;;1.85;;
66095;SDS011;53861;53.422;14.530;2023-05-17T07:34:43;9.75;;;2.33;;
66095;SDS011;53861;53.422;14.530;2023-05-17T07:37:10;10.60;;;1.95;;
66095;SDS011;53861;53.422;14.530;2023-05-17T07:39:37;11.95;;;1.63;;
66095;SDS011;53861;53.422;14.530;2023-05-17T07:42:05;9.30;;;1.85;;
66095;SDS011;53861;53.422;14.530;2023-05-17T07:44:34;12.75;;;1.80;;
66095;SDS011;53861;53.422;14.530;2023-05-17T07:47:04;16.10;;;1.90;;
66095;SDS011;53861;53.422;14.530;2023-05-17T07:49:31;8.40;;;1.77;;
66095;SDS011;53861;53.422;14.530;2023-05-17T07:51:59;11.55;;;1.73;;
66095;SDS011;53861;53.422;14.530;2023-05-17T07:54:27;13.93;;;1.83;;
66095;SDS011;53861;53.422;14.530;2023-05-17T07:56:54;14.18;;;1.92;;
66095;SDS011;53861;53.422;14.530;2023-05-17T07:59:22;7.97;;;1.48;;
66095;SDS011;53861;53.422;14.530;2023-05-17T08:01:51;11.48;;;1.58;;
66095;SDS011;53861;53.422;14.530;2023-05-17T08:04:20;8.73;;;1.65;;
66095;SDS011;53861;53.422;14.530;2023-05-17T08:06:49;13.00;;;2.00;;
66095;SDS011;53861;53.422;14.530;2023-05-17T08:09:16;11.95;;;1.50;;
66095;SDS011;53861;53.422;14.530;2023-05-17T08:11:44;9.15;;;1.60;;
66095;SDS011;53861;53.422;14.530;2023-05-17T08:14:12;11.70;;;1.80;;
66095;SDS011;53861;53.422;14.530;2023-05-17T08:16:40;11.27;;;1.58;;
66095;SDS011;53861;53.422;14.530;2023-05-17T08:19:10;11.32;;;1.65;;
66095;SDS011;53861;53.422;14.530;2023-05-17T08:21:40;12.48;;;1.80;;
66095;SDS011;53861;53.422;14.530;2023-05-17T08:24:08;9.95;;;1.50;;
66095;SDS011;53861;53.422;14.530;2023-05-17T08:26:36;11.07;;;1.45;;
66095;SDS011;53861;53.422;14.530;2023-05-17T08:29:03;8.27;;;1.52;;
66095;SDS011;53861;53.422;14.530;2023-05-17T08:31:31;10.32;;;1.80;;
66095;SDS011;53861;53.422;14.530;2023-05-17T08:33:58;9.10;;;1.63;;
66095;SDS011;53861;53.422;14.530;2023-05-17T08:36:30;13.35;;;2.15;;
66095;SDS011;53861;53.422;14.530;2023-05-17T08:38:57;11.45;;;1.70;;
66095;SDS011;53861;53.422;14.530;2023-05-17T08:41:25;8.98;;;1.35;;
66095;SDS011;53861;53.422;14.530;2023-05-17T08:43:53;12.07;;;1.85;;
66095;SDS011;53861;53.422;14.530;2023-05-17T08:46:27;11.60;;;1.65;;
66095;SDS011;53861;53.422;14.530;2023-05-17T08:48:56;15.23;;;2.53;;
66095;SDS011;53861;53.422;14.530;2023-05-17T08:51:27;16.58;;;1.60;;
66095;SDS011;53861;53.422;14.530;2023-05-17T08:53:55;6.90;;;1.35;;
66095;SDS011;53861;53.422;14.530;2023-05-17T08:56:22;10.90;;;1.67;;
66095;SDS011;53861;53.422;14.530;2023-05-17T08:58:54;10.40;;;1.52;;
66095;SDS011;53861;53.422;14.530;2023-05-17T09:01:22;10.40;;;1.70;;
66095;SDS011;53861;53.422;14.530;2023-05-17T09:03:52;10.23;;;1.58;;
66095;SDS011;53861;53.422;14.530;2023-05-17T09:06:20;9.32;;;1.40;;
66095;SDS011;53861;53.422;14.530;2023-05-17T09:08:50;12.63;;;1.88;;
66095;SDS011;53861;53.422;14.530;2023-05-17T09:11:23;9.80;;;1.58;;
66095;SDS011;53861;53.422;14.530;2023-05-17T09:13:52;8.57;;;1.80;;
66095;SDS011;53861;53.422;14.530;2023-05-17T09:16:20;11.30;;;2.10;;
66095;SDS011;53861;53.422;14.530;2023-05-17T09:18:54;9.27;;;1.60;;
66095;SDS011;53861;53.422;14.530;2023-05-17T09:21:23;9.60;;;2.63;;
66095;SDS011;53861;53.422;14.530;2023-05-17T09:23:52;8.00;;;1.85;;
66095;SDS011;53861;53.422;14.530;2023-05-17T09:26:20;14.15;;;1.83;;
66095;SDS011;53861;53.422;14.530;2023-05-17T09:28:48;13.63;;;1.83;;
66095;SDS011;53861;53.422;14.530;2023-05-17T09:31:15;12.48;;;1.52;;
66095;SDS011;53861;53.422;14.530;2023-05-17T09:33:43;17.95;;;2.10;;
66095;SDS011;53861;53.422;14.530;2023-05-17T09:36:14;8.90;;;1.55;;
66095;SDS011;53861;53.422;14.530;2023-05-17T09:38:52;13.70;;;1.87;;
66095;SDS011;53861;53.422;14.530;2023-05-17T09:41:20;11.57;;;1.40;;
66095;SDS011;53861;53.422;14.530;2023-05-17T09:43:48;10.20;;;1.77;;
66095;SDS011;53861;53.422;14.530;2023-05-17T09:46:15;10.23;;;2.17;;
66095;SDS011;53861;53.422;14.530;2023-05-17T09:48:43;7.45;;;1.38;;
66095;SDS011;53861;53.422;14.530;2023-05-17T09:51:11;12.18;;;1.55;;
66095;SDS011;53861;53.422;14.530;2023-05-17T09:53:38;9.02;;;1.63;;
66095;SDS011;53861;53.422;14.530;2023-05-17T09:56:08;10.30;;;1.67;;
66095;SDS011;53861;53.422;14.530;2023-05-17T09:58:36;12.65;;;1.80;;
66095;SDS011;53861;53.422;14.530;2023-05-17T10:01:04;11.82;;;1.85;;
66095;SDS011;53861;53.422;14.530;2023-05-17T10:03:33;14.32;;;2.20;;
66095;SDS011;53861;53.422;14.530;2023-05-17T10:06:04;12.52;;;1.80;;
66095;SDS011;53861;53.422;14.530;2023-05-17T10:08:34;16.40;;;2.22;;
66095;SDS011;53861;53.422;14.530;2023-05-17T10:11:05;11.48;;;1.85;;
66095;SDS011;53861;53.422;14.530;2023-05-17T10:13:38;6.88;;;1.45;;
66095;SDS011;53861;53.422;14.530;2023-05-17T10:16:10;12.05;;;2.10;;
66095;SDS011;53861;53.422;14.530;2023-05-17T10:18:38;18.85;;;1.75;;
66095;SDS011;53861;53.422;14.530;2023-05-17T10:21:06;7.97;;;1.52;;
66095;SDS011;53861;53.422;14.530;2023-05-17T10:23:35;6.95;;;1.42;;
66095;SDS011;53861;53.422;14.530;2023-05-17T10:26:04;18.10;;;2.13;;
66095;SDS011;53861;53.422;14.530;2023-05-17T10:28:34;10.27;;;1.90;;
66095;SDS011;53861;53.422;14.530;2023-05-17T10:31:03;10.63;;;1.77;;
66095;SDS011;53861;53.422;14.530;2023-05-17T10:33:31;11.52;;;2.08;;
66095;SDS011;53861;53.422;14.530;2023-05-17T10:35:58;9.70;;;1.83;;
66095;SDS011;53861;53.422;14.530;2023-05-17T10:38:28;12.68;;;1.65;;
66095;SDS011;53861;53.422;14.530;2023-05-17T10:40:55;9.95;;;1.75;;
66095;SDS011;53861;53.422;14.530;2023-05-17T10:43:23;11.07;;;2.15;;
66095;SDS011;53861;53.422;14.530;2023-05-17T10:45:53;12.13;;;2.10;;
66095;SDS011;53861;53.422;14.530;2023-05-17T10:48:21;13.82;;;2.85;;
66095;SDS011;53861;53.422;14.530;2023-05-17T10:50:50;11.30;;;2.00;;
66095;SDS011;53861;53.422;14.530;2023-05-17T10:53:19;7.30;;;1.50;;
66095;SDS011;53861;53.422;14.530;2023-05-17T10:55:46;9.70;;;1.77;;
66095;SDS011;53861;53.422;14.530;2023-05-17T10:58:14;9.25;;;1.65;;
66095;SDS011;53861;53.422;14.530;2023-05-17T11:00:44;13.13;;;1.95;;
66095;SDS011;53861;53.422;14.530;2023-05-17T11:03:18;10.52;;;2.25;;
66095;SDS011;53861;53.422;14.530;2023-05-17T11:08:42;13.77;;;1.52;;
66095;SDS011;53861;53.422;14.530;2023-05-17T11:11:12;9.97;;;2.33;;
66095;SDS011;53861;53.422;14.530;2023-05-17T11:13:44;14.65;;;2.20;;
66095;SDS011;53861;53.422;14.530;2023-05-17T11:16:13;11.43;;;2.25;;
66095;SDS011;53861;53.422;14.530;2023-05-17T11:18:47;13.63;;;2.15;;
66095;SDS011;53861;53.422;14.530;2023-05-17T11:21:15;12.18;;;1.85;;
66095;SDS011;53861;53.422;14.530;2023-05-17T11:23:43;11.50;;;2.30;;
66095;SDS011;53861;53.422;14.530;2023-05-17T11:26:13;9.43;;;1.75;;
66095;SDS011;53861;53.422;14.530;2023-05-17T11:28:43;8.60;;;1.95;;
66095;SDS011;53861;53.422;14.530;2023-05-17T11:31:10;10.30;;;1.90;;
66095;SDS011;53861;53.422;14.530;2023-05-17T11:33:38;15.52;;;2.05;;
66095;SDS011;53861;53.422;14.530;2023-05-17T11:36:18;15.90;;;1.95;;
66095;SDS011;53861;53.422;14.530;2023-05-17T11:38:47;11.00;;;2.20;;
66095;SDS011;53861;53.422;14.530;2023-05-17T11:41:15;19.70;;;3.40;;
66095;SDS011;53861;53.422;14.530;2023-05-17T11:43:44;11.68;;;2.05;;
66095;SDS011;53861;53.422;14.530;2023-05-17T11:46:20;12.43;;;1.90;;
66095;SDS011;53861;53.422;14.530;2023-05-17T11:48:52;9.00;;;1.83;;
66095;SDS011;53861;53.422;14.530;2023-05-17T11:51:21;12.27;;;1.83;;
66095;SDS011;53861;53.422;14.530;2023-05-17T11:53:49;16.73;;;2.05;;
66095;SDS011;53861;53.422;14.530;2023-05-17T11:56:16;11.57;;;1.80;;
66095;SDS011;53861;53.422;14.530;2023-05-17T11:58:50;9.35;;;1.95;;
66095;SDS011;53861;53.422;14.530;2023-05-17T12:01:18;12.45;;;1.63;;
66095;SDS011;53861;53.422;14.530;2023-05-17T12:03:46;8.98;;;1.48;;
66095;SDS011;53861;53.422;14.530;2023-05-17T12:06:22;11.32;;;1.88;;
66095;SDS011;53861;53.422;14.530;2023-05-17T12:08:53;13.77;;;2.70;;
66095;SDS011;53861;53.422;14.530;2023-05-17T12:11:20;8.38;;;1.50;;
66095;SDS011;53861;53.422;14.530;2023-05-17T12:13:49;8.32;;;1.67;;
66095;SDS011;53861;53.422;14.530;2023-05-17T12:16:16;13.27;;;2.00;;
66095;SDS011;53861;53.422;14.530;2023-05-17T12:18:48;10.52;;;2.20;;
66095;SDS011;53861;53.422;14.530;2023-05-17T12:21:17;11.55;;;2.08;;
66095;SDS011;53861;53.422;14.530;2023-05-17T12:23:49;11.73;;;1.90;;
66095;SDS011;53861;53.422;14.530;2023-05-17T12:26:17;9.52;;;2.00;;
66095;SDS011;53861;53.422;14.530;2023-05-17T12:28:51;9.50;;;2.10;;
66095;SDS011;53861;53.422;14.530;2023-05-17T12:31:21;7.30;;;1.90;;
66095;SDS011;53861;53.422;14.530;2023-05-17T12:33:52;15.57;;;1.98;;
66095;SDS011;53861;53.422;14.530;2023-05-17T12:36:20;9.65;;;1.75;;
66095;SDS011;53861;53.422;14.530;2023-05-17T12:38:49;6.55;;;1.70;;
66095;SDS011;53861;53.422;14.530;2023-05-17T12:41:19;12.30;;;2.35;;
66095;SDS011;53861;53.422;14.530;2023-05-17T12:43:49;10.57;;;2.35;;
66095;SDS011;53861;53.422;14.530;2023-05-17T12:46:16;9.25;;;1.70;;
66095;SDS011;53861;53.422;14.530;2023-05-17T12:48:46;10.75;;;2.05;;
66095;SDS011;53861;53.422;14.530;2023-05-17T12:51:15;8.68;;;1.60;;
66095;SDS011;53861;53.422;14.530;2023-05-17T12:53:47;10.18;;;2.22;;
66095;SDS011;53861;53.422;14.530;2023-05-17T12:56:17;13.18;;;2.00;;
66095;SDS011;53861;53.422;14.530;2023-05-17T13:01:32;13.40;;;1.92;;
66095;SDS011;53861;53.422;14.530;2023-05-17T13:04:00;8.30;;;1.88;;
66095;SDS011;53861;53.422;14.530;2023-05-17T13:06:27;7.75;;;1.88;;
66095;SDS011;53861;53.422;14.530;2023-05-17T13:08:58;12.52;;;1.75;;
66095;SDS011;53861;53.422;14.530;2023-05-17T13:11:27;13.60;;;1.73;;
66095;SDS011;53861;53.422;14.530;2023-05-17T13:13:54;6.80;;;1.70;;
66095;SDS011;53861;53.422;14.530;2023-05-17T13:16:28;14.85;;;2.25;;
66095;SDS011;53861;53.422;14.530;2023-05-17T13:18:55;12.18;;;1.90;;
66095;SDS011;53861;53.422;14.530;2023-05-17T13:21:23;7.82;;;1.50;;
66095;SDS011;53861;53.422;14.530;2023-05-17T13:23:50;10.82;;;1.45;;
66095;SDS011;53861;53.422;14.530;2023-05-17T13:26:18;9.98;;;2.22;;
66095;SDS011;53861;53.422;14.530;2023-05-17T13:28:47;10.57;;;1.70;;
66095;SDS011;53861;53.422;14.530;2023-05-17T13:31:15;9.20;;;1.42;;
66095;SDS011;53861;53.422;14.530;2023-05-17T13:33:42;10.13;;;2.10;;
66095;SDS011;53861;53.422;14.530;2023-05-17T13:36:10;11.90;;;2.35;;
66095;SDS011;53861;53.422;14.530;2023-05-17T13:38:37;10.90;;;1.98;;
66095;SDS011;53861;53.422;14.530;2023-05-17T13:41:05;10.23;;;2.55;;
66095;SDS011;53861;53.422;14.530;2023-05-17T13:43:34;8.85;;;1.90;;
66095;SDS011;53861;53.422;14.530;2023-05-17T13:46:02;11.05;;;1.63;;
66095;SDS011;53861;53.422;14.530;2023-05-17T13:48:29;12.07;;;2.05;;
66095;SDS011;53861;53.422;14.530;2023-05-17T13:50:57;11.57;;;1.90;;
66095;SDS011;53861;53.422;14.530;2023-05-17T13:53:24;10.35;;;1.33;;
66095;SDS011;53861;53.422;14.530;2023-05-17T13:55:51;6.55;;;1.45;;
66095;SDS011;53861;53.422;14.530;2023-05-17T13:58:19;10.23;;;1.80;;
66095;SDS011;53861;53.422;14.530;2023-05-17T14:00:46;11.23;;;2.92;;
66095;SDS011;53861;53.422;14.530;2023-05-17T14:03:15;8.77;;;1.50;;
66095;SDS011;53861;53.422;14.530;2023-05-17T14:05:43;8.85;;;1.40;;
66095;SDS011;53861;53.422;14.530;2023-05-17T14:08:14;7.18;;;1.48;;
66095;SDS011;53861;53.422;14.530;2023-05-17T14:10:41;11.73;;;1.90;;
66095;SDS011;53861;53.422;14.530;2023-05-17T14:13:09;9.02;;;1.90;;
66095;SDS011;53861;53.422;14.530;2023-05-17T14:15:37;11.20;;;1.92;;
66095;SDS011;53861;53.422;14.530;2023-05-17T14:18:04;10.45;;;2.15;;
66095;SDS011;53861;53.422;14.530;2023-05-17T14:20:34;7.63;;;1.40;;
66095;SDS011;53861;53.422;14.530;2023-05-17T14:23:01;10.15;;;1.73;;
66095;SDS011;53861;53.422;14.530;2023-05-17T14:25:29;6.97;;;1.70;;
66095;SDS011;53861;53.422;14.530;2023-05-17T14:27:56;7.90;;;1.60;;
66095;SDS011;53861;53.422;14.530;2023-05-17T14:30:23;10.00;;;1.55;;
66095;SDS011;53861;53.422;14.530;2023-05-17T14:32:51;11.55;;;1.65;;
66095;SDS011;53861;53.422;14.530;2023-05-17T14:35:18;18.75;;;1.83;;
66095;SDS011;53861;53.422;14.530;2023-05-17T14:37:46;4.88;;;1.63;;
66095;SDS011;53861;53.422;14.530;2023-05-17T14:40:14;7.10;;;1.80;;